Miami, Florida
Current Conditions -  °F | °C
As of 7:53 PM on Sunday 21 Dec 2014 (Local Time) from KMIA Reporting Station
Broken Clouds Broken Clouds  
Wind Chill: 73°   Ceiling: 25000
Heat Index: 73°   Visibility: 10mi
Dew Point: 65°   Wind: 7mph
Humidity: 76%   Direction: 130°SE
Pressure: 30.05"   Gusts: NA
Location:  25.77°N, 80.19°W
Report Text: KMIA 220053Z 13006KT 10SM FEW130 BKN250 23/18 A3005 RMK AO2 SLP176 T02280183
Loading
Personal Weather Stations






























Interactive Weather Map New forecast layout! Learn more

10-Day Weather Forecast

Advertisements
Track Severe Weather on mobile